createdAt,value
2022-10-19T00:02:11.489Z,101253.58
2022-10-19T00:05:18.247Z,101254.52
2022-10-19T00:08:24.917Z,101260.43
2022-10-19T00:11:32.619Z,101262.98
2022-10-19T00:14:39.344Z,101264.23
2022-10-19T00:17:45.815Z,101267.19
2022-10-19T00:20:52.581Z,101268.83
2022-10-19T00:23:59.371Z,101269.49
2022-10-19T00:27:06.383Z,101271.98
2022-10-19T00:30:13.468Z,101267.00
2022-10-19T00:33:22.420Z,101264.83
2022-10-19T00:36:32.182Z,101256.27
2022-10-19T00:39:39.295Z,101257.46
2022-10-19T00:42:46.120Z,101256.45
2022-10-19T00:45:56.138Z,101258.02
2022-10-19T00:49:09.894Z,101259.92
2022-10-19T00:52:22.348Z,101256.77
2022-10-19T00:55:29.121Z,101259.91
2022-10-19T00:58:35.880Z,101253.76
2022-10-19T01:01:43.591Z,101256.57
2022-10-19T01:04:52.970Z,101253.47
2022-10-19T01:08:00.442Z,101249.11
2022-10-19T01:11:23.731Z,101250.16
2022-10-19T01:14:45.617Z,101248.34
2022-10-19T01:18:02.574Z,101247.27
2022-10-19T01:21:20.142Z,101244.19
2022-10-19T01:24:57.855Z,101241.69
2022-10-19T01:28:19.233Z,101241.09
2022-10-19T01:31:36.263Z,101240.89
2022-10-19T01:34:50.061Z,101244.15
2022-10-19T01:38:05.529Z,101245.32
2022-10-19T01:41:19.531Z,101243.95
2022-10-19T01:44:30.978Z,101244.98
2022-10-19T01:47:42.546Z,101241.48
2022-10-19T01:50:55.656Z,101242.33
2022-10-19T01:54:06.718Z,101235.34
2022-10-19T01:57:18.486Z,101231.08
2022-10-19T02:00:27.147Z,101228.53
2022-10-19T02:03:35.096Z,101232.80
2022-10-19T02:06:42.267Z,101228.81
2022-10-19T02:09:48.912Z,101228.93
2022-10-19T02:12:57.293Z,101225.56
2022-10-19T02:16:08.399Z,101222.50
2022-10-19T02:19:16.910Z,101217.56
2022-10-19T02:22:23.639Z,101216.30
2022-10-19T02:25:30.364Z,101217.56
2022-10-19T02:28:37.973Z,101218.73
2022-10-19T02:31:45.438Z,101219.73
2022-10-19T02:34:52.254Z,101224.09
2022-10-19T02:38:02.789Z,101229.95
2022-10-19T02:41:16.910Z,101228.39
2022-10-19T02:44:28.308Z,101229.52
2022-10-19T02:47:39.745Z,101225.66
2022-10-19T02:50:48.588Z,101220.59
2022-10-19T02:53:55.338Z,101219.50
2022-10-19T02:57:02.165Z,101218.02
2022-10-19T03:00:10.964Z,101217.95
2022-10-19T03:03:17.642Z,101222.96
2022-10-19T03:06:24.315Z,101221.66
2022-10-19T03:09:31.006Z,101220.73
2022-10-19T03:12:37.608Z,101221.36
2022-10-19T03:15:44.305Z,101216.84
2022-10-19T03:18:52.482Z,101220.05
2022-10-19T03:21:59.193Z,101222.48
2022-10-19T03:25:06.255Z,101217.15
2022-10-19T03:28:12.894Z,101218.34
2022-10-19T03:31:20.034Z,101216.76
2022-10-19T03:34:26.617Z,101220.25
2022-10-19T03:37:33.416Z,101213.20
2022-10-19T03:40:40.341Z,101219.07
2022-10-19T03:43:47.189Z,101217.55
2022-10-19T03:46:53.780Z,101219.98
2022-10-19T03:50:00.599Z,101215.92
2022-10-19T03:53:07.269Z,101212.33
2022-10-19T03:56:16.707Z,101213.03
2022-10-19T03:59:23.064Z,101210.39
2022-10-19T04:02:31.421Z,101210.26
2022-10-19T04:05:37.931Z,101214.45
2022-10-19T04:08:45.384Z,101214.75
2022-10-19T04:11:52.480Z,101222.78
2022-10-19T04:14:59.331Z,101221.67
2022-10-19T04:18:06.090Z,101222.91
2022-10-19T04:21:24.166Z,101222.02
2022-10-19T04:24:30.891Z,101226.05
2022-10-19T04:27:37.495Z,101228.48
2022-10-19T04:30:44.207Z,101232.19
2022-10-19T04:33:50.808Z,101227.34
2022-10-19T04:36:59.651Z,101227.39
2022-10-19T04:40:12.839Z,101229.39
2022-10-19T04:43:21.792Z,101231.31
2022-10-19T04:46:29.712Z,101222.23
2022-10-19T04:49:36.275Z,101234.72
2022-10-19T04:52:45.112Z,101229.82
2022-10-19T04:55:51.647Z,101224.66
2022-10-19T04:58:59.854Z,101228.30
2022-10-19T05:02:06.747Z,101232.94
2022-10-19T05:05:13.767Z,101225.73
2022-10-19T05:08:20.432Z,101230.34
2022-10-19T05:11:27.704Z,101232.86
2022-10-19T05:14:37.832Z,101237.89
2022-10-19T05:17:47.185Z,101240.98
2022-10-19T05:21:01.004Z,101239.95
2022-10-19T05:24:07.844Z,101239.48
2022-10-19T05:27:14.412Z,101240.11
2022-10-19T05:30:21.834Z,101241.67
2022-10-19T05:33:28.500Z,101245.12
2022-10-19T05:36:37.039Z,101248.69
2022-10-19T05:39:43.930Z,101251.33
2022-10-19T05:42:50.498Z,101252.30
2022-10-19T05:45:57.383Z,101255.34
2022-10-19T05:49:04.491Z,101255.40
2022-10-19T05:52:11.043Z,101261.14
2022-10-19T05:55:17.864Z,101260.39
2022-10-19T05:58:25.142Z,101270.05
2022-10-19T06:01:33.380Z,101262.55
2022-10-19T06:04:40.199Z,101277.64
2022-10-19T06:07:46.778Z,101277.85
2022-10-19T06:10:53.884Z,101277.77
2022-10-19T06:14:02.589Z,101274.98
2022-10-19T06:17:09.345Z,101274.38
2022-10-19T06:20:16.193Z,101280.71
2022-10-19T06:23:22.866Z,101280.80
2022-10-19T06:26:30.847Z,101278.53
2022-10-19T06:29:38.022Z,101278.74
2022-10-19T06:32:44.878Z,101285.33
2022-10-19T06:35:51.775Z,101285.84
2022-10-19T06:38:59.900Z,101290.84
2022-10-19T06:42:06.706Z,101291.95
2022-10-19T06:45:14.837Z,101293.65
2022-10-19T06:48:22.006Z,101293.48
2022-10-19T06:51:32.068Z,101293.63
2022-10-19T06:54:38.775Z,101298.99
2022-10-19T06:57:45.777Z,101310.21
2022-10-19T07:00:58.295Z,101312.63
2022-10-19T07:04:05.181Z,101314.59
2022-10-19T07:07:11.944Z,101322.85
2022-10-19T07:10:18.794Z,101316.09
2022-10-19T07:13:25.739Z,101318.10
2022-10-19T07:16:32.390Z,101319.13
2022-10-19T07:19:39.467Z,101323.92
2022-10-19T07:22:46.113Z,101323.34
2022-10-19T07:25:54.018Z,101328.41
2022-10-19T07:29:01.231Z,101329.92
2022-10-19T07:32:08.246Z,101334.08
2022-10-19T07:35:14.996Z,101332.94
2022-10-19T07:38:21.589Z,101340.36
2022-10-19T07:41:28.494Z,101336.48
2022-10-19T07:44:35.259Z,101336.43
2022-10-19T07:47:42.076Z,101338.32
2022-10-19T07:50:51.485Z,101336.40
2022-10-19T07:53:56.560Z,101340.52
2022-10-19T07:57:03.194Z,101336.98
2022-10-19T08:00:12.690Z,101338.05
2022-10-19T08:03:57.637Z,101345.24
2022-10-19T08:06:46.199Z,101343.71
2022-10-19T08:09:54.131Z,101339.77
2022-10-19T08:13:01.243Z,101334.44
2022-10-19T08:16:20.997Z,101339.50
2022-10-19T08:19:26.064Z,101344.88
2022-10-19T08:22:33.079Z,101349.37
2022-10-19T08:25:39.825Z,101350.85
2022-10-19T08:28:46.685Z,101356.66
2022-10-19T08:31:53.451Z,101353.10
2022-10-19T08:35:00.111Z,101353.69
2022-10-19T08:38:07.091Z,101351.42
2022-10-19T08:41:24.285Z,101354.10
2022-10-19T08:44:48.765Z,101352.83
2022-10-19T08:48:08.088Z,101350.61
2022-10-19T08:51:14.738Z,101355.27
2022-10-19T08:54:22.036Z,101350.36
2022-10-19T08:57:40.181Z,101353.05
2022-10-19T09:00:52.270Z,101352.69
2022-10-19T09:04:03.616Z,101354.88
2022-10-19T09:07:32.723Z,101358.14
2022-10-19T09:10:41.878Z,101361.59
2022-10-19T09:14:05.991Z,101366.27
2022-10-19T09:17:17.000Z,101361.89
2022-10-19T09:20:28.254Z,101362.91
2022-10-19T09:23:40.753Z,101364.28
2022-10-19T09:26:53.469Z,101369.82
2022-10-19T09:30:03.772Z,101371.30
2022-10-19T09:33:17.240Z,101366.77
2022-10-19T09:36:39.380Z,101373.78
2022-10-19T09:39:54.845Z,101379.84
2022-10-19T09:43:09.003Z,101379.30
2022-10-19T09:46:27.373Z,101383.02
2022-10-19T09:49:45.097Z,101388.05
2022-10-19T09:52:53.691Z,101384.74
2022-10-19T09:56:06.234Z,101384.74
2022-10-19T09:59:24.251Z,101390.59
2022-10-19T10:02:34.916Z,101396.17
2022-10-19T10:05:48.676Z,101397.80
2022-10-19T10:08:59.010Z,101398.56
2022-10-19T10:12:09.080Z,101403.73
2022-10-19T10:15:20.901Z,101407.61
2022-10-19T10:18:29.813Z,101408.03
2022-10-19T10:21:47.250Z,101406.26
2022-10-19T10:24:57.491Z,101418.46
2022-10-19T10:28:18.238Z,101424.84
2022-10-19T10:31:28.680Z,101434.17
2022-10-19T10:34:58.539Z,101427.55
2022-10-19T10:38:13.824Z,101430.02
2022-10-19T10:41:24.138Z,101433.81
2022-10-19T10:44:35.167Z,101444.27
2022-10-19T10:47:48.219Z,101444.04
2022-10-19T10:50:55.379Z,101448.39
2022-10-19T10:54:16.948Z,101447.70
2022-10-19T10:57:26.659Z,101456.98
2022-10-19T11:00:35.490Z,101455.86
2022-10-19T11:03:51.643Z,101452.80
2022-10-19T11:07:02.967Z,101452.75
2022-10-19T11:10:21.274Z,101452.17
2022-10-19T11:13:34.417Z,101448.55
2022-10-19T11:16:46.476Z,101448.10
2022-10-19T11:19:53.805Z,101445.63
2022-10-19T11:23:12.214Z,101445.86
2022-10-19T11:26:27.685Z,101444.60
2022-10-19T11:29:49.982Z,101439.30
2022-10-19T11:33:07.929Z,101441.61
2022-10-19T11:36:26.058Z,101440.73
2022-10-19T11:39:42.867Z,101439.20
2022-10-19T11:43:02.761Z,101432.66
2022-10-19T11:46:15.797Z,101437.40
2022-10-19T11:49:38.615Z,101436.37
2022-10-19T11:52:54.276Z,101435.46
2022-10-19T11:56:09.090Z,101439.42
2022-10-19T11:59:28.532Z,101439.66
2022-10-19T12:03:00.361Z,101430.73
2022-10-19T12:06:18.415Z,101430.98
2022-10-19T12:09:40.627Z,101432.34
2022-10-19T12:12:50.231Z,101425.70
2022-10-19T12:16:00.521Z,101423.71
2022-10-19T12:19:14.021Z,101433.39
2022-10-19T12:22:23.571Z,101438.03
2022-10-19T12:25:30.496Z,101440.84
2022-10-19T12:28:40.001Z,101444.13
2022-10-19T12:31:49.215Z,101444.78
2022-10-19T12:35:03.396Z,101439.25
2022-10-19T12:38:16.865Z,101437.71
2022-10-19T12:41:32.411Z,101438.75
2022-10-19T12:45:03.671Z,101437.66
2022-10-19T12:48:25.508Z,101444.91
2022-10-19T12:51:45.617Z,101444.06
2022-10-19T12:54:52.551Z,101439.27
2022-10-19T12:58:06.234Z,101449.95
2022-10-19T13:01:19.078Z,101443.70
2022-10-19T13:04:28.698Z,101440.58
2022-10-19T13:07:37.883Z,101440.09
2022-10-19T13:11:09.976Z,101439.06
2022-10-19T13:14:44.139Z,101442.41
2022-10-19T13:17:52.004Z,101445.05
2022-10-19T13:21:00.443Z,101443.61
2022-10-19T13:24:29.733Z,101445.67
2022-10-19T13:27:40.495Z,101452.40
2022-10-19T13:31:09.351Z,101454.48
2022-10-19T13:34:18.249Z,101453.96
2022-10-19T13:37:24.984Z,101458.07
2022-10-19T13:40:33.517Z,101462.44
2022-10-19T13:43:52.401Z,101459.04
2022-10-19T13:47:25.414Z,101459.66
2022-10-19T13:50:42.609Z,101463.79
2022-10-19T13:54:01.226Z,101466.60
2022-10-19T13:57:24.295Z,101459.96
2022-10-19T14:00:35.769Z,101461.04
2022-10-19T14:03:57.093Z,101467.10
2022-10-19T14:07:12.278Z,101458.42
2022-10-19T14:10:22.782Z,101465.66
2022-10-19T14:13:36.237Z,101473.67
2022-10-19T14:16:56.038Z,101478.69
2022-10-19T14:20:25.035Z,101476.34
2022-10-19T14:23:34.436Z,101470.17
2022-10-19T14:26:41.255Z,101480.70
2022-10-19T14:29:50.258Z,101478.41
2022-10-19T14:33:01.132Z,101481.55
2022-10-19T14:36:17.304Z,101487.16
2022-10-19T14:39:33.542Z,101486.10
2022-10-19T14:42:43.765Z,101480.55
2022-10-19T14:46:10.192Z,101482.86
2022-10-19T14:49:17.001Z,101480.09
2022-10-19T14:52:29.274Z,101480.48
2022-10-19T14:55:40.539Z,101487.48
2022-10-19T14:58:53.988Z,101489.30
2022-10-19T15:02:03.638Z,101489.60
2022-10-19T15:05:22.251Z,101491.30
2022-10-19T15:08:40.380Z,101492.42
2022-10-19T15:11:50.032Z,101495.25
2022-10-19T15:14:58.562Z,101504.80
2022-10-19T15:18:13.173Z,101504.98
2022-10-19T15:21:23.638Z,101514.34
2022-10-19T15:24:30.734Z,101514.54
2022-10-19T15:27:39.404Z,101514.13
2022-10-19T15:30:46.643Z,101508.84
2022-10-19T15:33:55.050Z,101511.26
2022-10-19T15:37:03.580Z,101511.59
2022-10-19T15:40:21.203Z,101512.96
2022-10-19T15:43:38.847Z,101516.36
2022-10-19T15:47:23.410Z,101514.14
2022-10-19T15:50:38.542Z,101518.83
2022-10-19T15:53:45.285Z,101522.35
2022-10-19T15:56:56.455Z,101525.69
2022-10-19T16:00:09.247Z,101526.91
2022-10-19T16:03:16.445Z,101526.35
2022-10-19T16:06:26.011Z,101533.38
2022-10-19T16:09:32.857Z,101535.48
2022-10-19T16:12:39.608Z,101539.57
2022-10-19T16:15:50.010Z,101544.48
2022-10-19T16:19:04.777Z,101546.19
2022-10-19T16:22:11.546Z,101553.84
2022-10-19T16:25:21.192Z,101553.23
2022-10-19T16:28:27.919Z,101555.48
2022-10-19T16:31:34.562Z,101555.33
2022-10-19T16:34:41.464Z,101561.44
2022-10-19T16:37:48.182Z,101564.58
2022-10-19T16:40:55.008Z,101569.67
2022-10-19T16:44:01.656Z,101569.26
2022-10-19T16:47:08.231Z,101572.57
2022-10-19T16:50:14.779Z,101576.90
2022-10-19T16:53:21.304Z,101580.45
2022-10-19T16:56:30.719Z,101576.64
2022-10-19T16:59:37.514Z,101580.12
2022-10-19T17:02:45.832Z,101584.30
2022-10-19T17:05:53.503Z,101587.05
2022-10-19T17:12:28.019Z,101599.68
2022-10-19T17:15:43.052Z,101599.78
2022-10-19T17:18:52.380Z,101605.46
2022-10-19T17:21:59.684Z,101606.36
2022-10-19T17:25:07.308Z,101613.35
2022-10-19T17:28:13.946Z,101619.49
2022-10-19T17:31:20.660Z,101624.25
2022-10-19T17:34:28.532Z,101624.20
2022-10-19T17:37:35.705Z,101626.95
2022-10-19T17:40:43.050Z,101623.60
2022-10-19T17:43:51.868Z,101620.73
2022-10-19T17:46:58.628Z,101619.22
2022-10-19T17:50:05.705Z,101623.87
2022-10-19T17:53:12.335Z,101628.80
2022-10-19T17:56:21.076Z,101634.02
2022-10-19T17:59:34.838Z,101635.95
2022-10-19T18:02:44.462Z,101636.11
2022-10-19T18:06:00.873Z,101636.36
2022-10-19T18:09:10.271Z,101641.48
2022-10-19T18:12:16.785Z,101646.27
2022-10-19T18:15:23.518Z,101653.23
2022-10-19T18:18:32.013Z,101658.52
2022-10-19T18:21:41.014Z,101655.66
2022-10-19T18:24:47.908Z,101661.13
2022-10-19T18:27:54.612Z,101661.16
2022-10-19T18:31:07.573Z,101660.95
2022-10-19T18:34:16.131Z,101662.94
2022-10-19T18:37:22.877Z,101660.02
2022-10-19T18:40:29.533Z,101657.73
2022-10-19T18:43:36.211Z,101658.80
2022-10-19T18:46:43.288Z,101664.51
2022-10-19T18:49:49.913Z,101663.77
2022-10-19T18:52:56.468Z,101661.90
2022-10-19T18:56:05.019Z,101664.70
2022-10-19T18:59:11.636Z,101659.30
2022-10-19T19:02:22.668Z,101661.85
2022-10-19T19:05:35.985Z,101666.00
2022-10-19T19:11:58.076Z,101675.70
2022-10-19T19:15:08.200Z,101676.08
2022-10-19T19:18:14.830Z,101677.15
2022-10-19T19:21:23.523Z,101680.27
2022-10-19T19:24:32.206Z,101683.11
2022-10-19T19:30:50.803Z,101687.19
2022-10-19T19:33:57.387Z,101693.61
2022-10-19T19:37:07.411Z,101689.10
2022-10-19T19:40:17.885Z,101685.77
2022-10-19T19:43:25.582Z,101689.77
2022-10-19T19:46:32.347Z,101690.72
2022-10-19T19:49:39.065Z,101688.67
2022-10-19T19:52:45.757Z,101694.09
2022-10-19T19:55:52.855Z,101695.74
2022-10-19T19:59:03.454Z,101698.90
2022-10-19T20:02:12.133Z,101695.85
2022-10-19T20:05:18.796Z,101697.02
2022-10-19T20:08:26.514Z,101704.31
2022-10-19T20:11:33.990Z,101704.52
2022-10-19T20:14:42.606Z,101708.53
2022-10-19T20:17:49.468Z,101710.46
2022-10-19T20:20:56.008Z,101710.36
2022-10-19T20:24:03.143Z,101713.08
2022-10-19T20:27:09.889Z,101718.89
2022-10-19T20:30:16.601Z,101726.73
2022-10-19T20:33:23.373Z,101725.16
2022-10-19T20:36:29.942Z,101722.42
2022-10-19T20:39:36.636Z,101719.86
2022-10-19T20:42:44.126Z,101723.23
2022-10-19T20:45:50.804Z,101718.89
2022-10-19T20:48:59.668Z,101716.94
2022-10-19T20:52:06.535Z,101714.66
2022-10-19T20:55:13.448Z,101718.95
2022-10-19T20:58:20.056Z,101720.45
2022-10-19T21:01:27.403Z,101725.48
2022-10-19T21:04:35.660Z,101726.46
2022-10-19T21:07:42.280Z,101727.92
2022-10-19T21:10:49.079Z,101728.31
2022-10-19T21:13:58.585Z,101724.54
2022-10-19T21:17:05.375Z,101725.44
2022-10-19T21:20:12.673Z,101726.75
2022-10-19T21:23:19.304Z,101727.83
2022-10-19T21:26:27.524Z,101732.13
2022-10-19T21:29:34.228Z,101730.93
2022-10-19T21:32:40.827Z,101729.14
2022-10-19T21:35:47.516Z,101733.05
2022-10-19T21:38:54.410Z,101733.13
2022-10-19T21:42:00.923Z,101734.73
2022-10-19T21:45:29.392Z,101731.48
2022-10-19T21:48:36.660Z,101729.48
2022-10-19T21:51:45.779Z,101730.08
2022-10-19T21:54:54.298Z,101724.68
2022-10-19T21:58:01.204Z,101728.24
2022-10-19T22:01:08.988Z,101725.87
2022-10-19T22:04:18.215Z,101730.63
2022-10-19T22:07:24.875Z,101736.61
2022-10-19T22:10:31.490Z,101740.25
2022-10-19T22:13:38.895Z,101740.80
2022-10-19T22:16:45.472Z,101741.41
2022-10-19T22:19:53.340Z,101743.27
2022-10-19T22:22:59.859Z,101748.63
2022-10-19T22:26:14.652Z,101749.31
2022-10-19T22:29:21.667Z,101746.65
2022-10-19T22:32:28.240Z,101749.39
2022-10-19T22:35:34.806Z,101748.55
2022-10-19T22:38:42.198Z,101748.71
2022-10-19T22:41:48.695Z,101755.15
2022-10-19T22:44:55.244Z,101754.56
2022-10-19T22:48:01.858Z,101749.86
2022-10-19T22:51:08.686Z,101757.84
2022-10-19T22:54:15.443Z,101761.14
2022-10-19T22:57:22.067Z,101759.23
2022-10-19T23:00:29.075Z,101757.98
2022-10-19T23:03:37.682Z,101760.89
2022-10-19T23:06:44.491Z,101762.11
2022-10-19T23:09:51.112Z,101761.99
2022-10-19T23:12:57.741Z,101767.14
2022-10-19T23:16:04.400Z,101771.27
2022-10-19T23:19:11.149Z,101769.14
2022-10-19T23:22:17.671Z,101772.02
2022-10-19T23:25:24.303Z,101773.72
2022-10-19T23:28:32.825Z,101771.88
2022-10-19T23:31:39.565Z,101769.78
2022-10-19T23:34:48.391Z,101767.20
2022-10-19T23:37:55.592Z,101775.17
2022-10-19T23:41:02.576Z,101782.63
2022-10-19T23:44:10.422Z,101780.65
2022-10-19T23:47:17.003Z,101781.01
2022-10-19T23:50:23.796Z,101781.93
2022-10-19T23:53:34.644Z,101779.30
2022-10-19T23:56:43.689Z,101773.77
2022-10-19T23:59:50.736Z,101776.70
